createdAt,value
2023-01-03T00:01:50.706Z,10.13
2023-01-03T00:04:18.676Z,9.47
2023-01-03T00:06:50.073Z,9.77
2023-01-03T00:09:23.031Z,8.37
2023-01-03T00:12:11.859Z,7.63
2023-01-03T00:14:42.897Z,10.63
2023-01-03T00:17:12.188Z,8.50
2023-01-03T00:19:44.551Z,7.07
2023-01-03T00:22:14.131Z,5.73
2023-01-03T00:24:42.092Z,6.37
2023-01-03T00:27:10.140Z,7.10
2023-01-03T00:29:38.369Z,7.23
2023-01-03T00:32:06.707Z,8.30
2023-01-03T00:34:35.371Z,6.77
2023-01-03T00:37:03.151Z,6.50
2023-01-03T00:39:30.771Z,6.53
2023-01-03T00:41:58.279Z,6.00
2023-01-03T00:44:25.705Z,8.20
2023-01-03T00:46:53.162Z,6.63
2023-01-03T00:49:21.019Z,7.20
2023-01-03T00:51:48.517Z,6.83
2023-01-03T00:54:17.038Z,6.37
2023-01-03T00:56:46.738Z,7.03
2023-01-03T00:59:16.908Z,5.03
2023-01-03T01:01:54.553Z,5.23
2023-01-03T01:04:30.353Z,6.87
2023-01-03T01:07:02.217Z,5.07
2023-01-03T01:09:35.775Z,4.23
2023-01-03T01:12:04.988Z,4.37
2023-01-03T01:14:33.841Z,4.20
2023-01-03T01:17:05.609Z,4.73
2023-01-03T01:19:37.763Z,3.90
2023-01-03T01:22:06.009Z,4.63
2023-01-03T01:24:33.847Z,3.17
2023-01-03T01:27:01.608Z,2.87
2023-01-03T01:29:29.008Z,3.63
2023-01-03T01:31:56.503Z,4.17
2023-01-03T01:34:24.289Z,3.17
2023-01-03T01:36:51.989Z,3.77
2023-01-03T01:39:23.595Z,3.83
2023-01-03T01:42:20.414Z,3.43
2023-01-03T01:44:57.074Z,3.10
2023-01-03T01:47:52.534Z,3.23
2023-01-03T01:50:43.315Z,3.70
2023-01-03T01:53:16.000Z,5.37
2023-01-03T01:56:00.397Z,3.93
2023-01-03T01:58:33.420Z,3.83
2023-01-03T02:01:00.991Z,3.80
2023-01-03T02:03:28.848Z,3.23
2023-01-03T02:05:57.463Z,4.73
2023-01-03T02:08:25.291Z,3.43
2023-01-03T02:11:25.295Z,3.07
2023-01-03T02:14:13.316Z,3.70
2023-01-03T02:16:59.165Z,5.03
2023-01-03T02:20:10.246Z,4.43
2023-01-03T02:23:17.209Z,4.00
2023-01-03T02:26:08.450Z,4.97
2023-01-03T02:29:06.442Z,4.93
2023-01-03T02:31:48.728Z,4.33
2023-01-03T02:34:44.736Z,4.53
2023-01-03T02:37:18.300Z,4.93
2023-01-03T02:40:20.589Z,4.37
2023-01-03T02:43:22.574Z,5.70
2023-01-03T02:46:34.556Z,5.73
2023-01-03T02:49:30.138Z,4.60
2023-01-03T02:52:04.764Z,5.33
2023-01-03T02:55:04.784Z,5.97
2023-01-03T02:57:45.593Z,5.43
2023-01-03T03:00:17.265Z,5.00
2023-01-03T03:02:54.420Z,7.30
2023-01-03T03:05:46.141Z,5.73
2023-01-03T03:08:13.675Z,5.83
2023-01-03T03:11:00.650Z,6.03
2023-01-03T03:13:40.987Z,6.13
2023-01-03T03:16:43.756Z,6.57
2023-01-03T03:19:51.738Z,6.53
2023-01-03T03:22:56.310Z,5.77
2023-01-03T03:25:41.179Z,5.20
2023-01-03T03:28:31.761Z,4.90
2023-01-03T03:31:41.722Z,6.27
2023-01-03T03:34:24.957Z,4.70
2023-01-03T03:37:19.656Z,4.70
2023-01-03T03:40:06.620Z,6.13
2023-01-03T03:42:58.464Z,5.07
2023-01-03T03:45:53.783Z,5.00
2023-01-03T03:49:01.897Z,4.70
2023-01-03T03:51:35.308Z,3.73
2023-01-03T03:54:08.371Z,3.80
2023-01-03T03:56:38.199Z,4.60
2023-01-03T03:59:10.824Z,4.17
2023-01-03T04:01:42.081Z,4.33
2023-01-03T04:04:18.690Z,3.50
2023-01-03T04:06:53.004Z,4.10
2023-01-03T04:09:20.692Z,4.20
2023-01-03T04:11:48.095Z,4.40
2023-01-03T04:14:15.534Z,4.03
2023-01-03T04:16:42.967Z,3.57
2023-01-03T04:19:10.496Z,3.10
2023-01-03T04:21:37.991Z,3.07
2023-01-03T04:24:06.121Z,3.20
2023-01-03T04:26:33.544Z,3.57
2023-01-03T04:29:01.044Z,2.67
2023-01-03T04:31:28.648Z,2.93
2023-01-03T04:33:56.199Z,3.80
2023-01-03T04:36:23.806Z,4.10
2023-01-03T04:38:51.232Z,3.30
2023-01-03T04:41:18.774Z,3.47
2023-01-03T04:44:04.987Z,3.30
2023-01-03T04:46:34.605Z,4.50
2023-01-03T04:49:03.465Z,3.10
2023-01-03T04:51:31.664Z,3.10
2023-01-03T04:53:59.456Z,3.83
2023-01-03T04:56:38.755Z,4.17
2023-01-03T04:59:06.499Z,2.93
2023-01-03T05:01:34.141Z,4.23
2023-01-03T05:04:02.909Z,3.63
2023-01-03T05:06:30.475Z,2.80
2023-01-03T05:08:58.006Z,3.97
2023-01-03T05:11:25.479Z,3.27
2023-01-03T05:13:52.933Z,4.57
2023-01-03T05:16:20.630Z,3.00
2023-01-03T05:18:51.405Z,4.47
2023-01-03T05:21:39.938Z,3.13
2023-01-03T05:24:29.482Z,4.23
2023-01-03T05:27:00.011Z,3.47
2023-01-03T05:29:29.532Z,4.50
2023-01-03T05:31:57.345Z,3.93
2023-01-03T05:34:24.976Z,3.87
2023-01-03T05:36:52.437Z,3.40
2023-01-03T05:39:19.929Z,4.10
2023-01-03T05:42:02.506Z,3.10
2023-01-03T05:44:34.571Z,3.60
2023-01-03T05:47:04.458Z,3.57
2023-01-03T05:49:32.050Z,5.07
2023-01-03T05:51:59.477Z,3.40
2023-01-03T05:54:26.988Z,4.03
2023-01-03T05:56:54.516Z,4.40
2023-01-03T05:59:22.955Z,4.07
2023-01-03T06:01:51.116Z,2.90
2023-01-03T06:04:19.247Z,3.30
2023-01-03T06:06:46.766Z,4.83
2023-01-03T06:09:14.290Z,3.73
2023-01-03T06:11:41.899Z,3.10
2023-01-03T06:14:09.788Z,3.67
2023-01-03T06:16:55.852Z,3.97
2023-01-03T06:19:23.266Z,3.37
2023-01-03T06:21:50.669Z,2.80
2023-01-03T06:24:18.078Z,2.67
2023-01-03T06:26:45.472Z,3.30
2023-01-03T06:29:13.003Z,3.37
2023-01-03T06:31:40.518Z,2.83
2023-01-03T06:34:08.352Z,3.37
2023-01-03T06:36:36.742Z,5.20
2023-01-03T06:39:04.288Z,2.97
2023-01-03T06:41:31.786Z,3.33
2023-01-03T06:43:59.808Z,2.70
2023-01-03T06:46:45.758Z,2.60
2023-01-03T06:49:36.697Z,3.03
2023-01-03T06:52:24.680Z,2.83
2023-01-03T06:54:54.430Z,3.00
2023-01-03T06:57:25.731Z,2.73
2023-01-03T06:59:55.721Z,2.23
2023-01-03T07:02:23.359Z,2.10
2023-01-03T07:04:51.074Z,2.27
2023-01-03T07:07:18.710Z,2.80
2023-01-03T07:09:46.195Z,2.67
2023-01-03T07:12:32.168Z,2.80
2023-01-03T07:14:59.702Z,3.73
2023-01-03T07:17:27.210Z,2.77
2023-01-03T07:19:54.687Z,4.27
2023-01-03T07:22:22.146Z,2.97
2023-01-03T07:24:49.536Z,2.90
2023-01-03T07:27:16.980Z,3.53
2023-01-03T07:29:44.355Z,2.63
2023-01-03T07:32:11.769Z,3.80
2023-01-03T07:34:39.200Z,5.07
2023-01-03T07:37:06.597Z,2.80
2023-01-03T07:39:34.075Z,3.07
2023-01-03T07:42:20.097Z,2.73
2023-01-03T07:44:47.574Z,3.83
2023-01-03T07:47:15.332Z,3.07
2023-01-03T07:49:42.767Z,3.10
2023-01-03T07:52:10.228Z,3.50
2023-01-03T07:54:37.681Z,4.13
2023-01-03T07:57:05.137Z,3.17
2023-01-03T07:59:32.587Z,3.00
2023-01-03T08:02:00.158Z,2.73
2023-01-03T08:04:27.861Z,2.03
2023-01-03T08:06:55.359Z,2.60
2023-01-03T08:09:41.305Z,3.17
2023-01-03T08:12:33.626Z,3.23
2023-01-03T08:15:01.028Z,4.37
2023-01-03T08:17:28.471Z,3.77
2023-01-03T08:19:55.914Z,3.50
2023-01-03T08:22:23.471Z,3.10
2023-01-03T08:24:50.922Z,2.27
2023-01-03T08:27:18.386Z,3.77
2023-01-03T08:29:47.988Z,4.27
2023-01-03T08:32:16.167Z,5.53
2023-01-03T08:34:44.608Z,5.50
2023-01-03T08:37:13.235Z,4.60
2023-01-03T08:39:57.204Z,4.23
2023-01-03T08:42:25.471Z,5.13
2023-01-03T08:44:59.934Z,3.47
2023-01-03T08:47:28.790Z,4.50
2023-01-03T08:49:57.327Z,5.97
2023-01-03T08:52:26.108Z,5.30
2023-01-03T08:54:56.339Z,5.83
2023-01-03T08:57:23.692Z,4.70
2023-01-03T08:59:50.907Z,4.83
2023-01-03T09:02:18.364Z,5.87
2023-01-03T09:04:46.039Z,4.83
2023-01-03T09:07:13.480Z,5.10
2023-01-03T09:09:41.288Z,4.53
2023-01-03T09:12:08.532Z,4.13
2023-01-03T09:14:35.795Z,4.37
2023-01-03T09:17:03.173Z,4.40
2023-01-03T09:19:30.402Z,5.27
2023-01-03T09:21:57.641Z,5.73
2023-01-03T09:24:24.865Z,4.57
2023-01-03T09:26:54.735Z,4.20
2023-01-03T09:29:23.395Z,5.67
2023-01-03T09:31:51.536Z,5.00
2023-01-03T09:34:19.312Z,6.63
2023-01-03T09:36:46.534Z,5.00
2023-01-03T09:39:14.488Z,4.53
2023-01-03T09:41:42.760Z,5.27
2023-01-03T09:44:11.120Z,4.63
2023-01-03T09:46:38.746Z,4.50
2023-01-03T09:49:07.461Z,5.33
2023-01-03T09:51:58.515Z,3.37
2023-01-03T09:54:50.985Z,4.70
2023-01-03T09:57:50.176Z,5.47
2023-01-03T10:01:07.573Z,8.13
2023-01-03T10:03:52.035Z,6.80
2023-01-03T10:07:12.103Z,3.37
2023-01-03T10:10:15.752Z,5.10
2023-01-03T10:13:20.248Z,3.37
2023-01-03T10:16:02.290Z,5.90
2023-01-03T10:19:05.727Z,3.80
2023-01-03T10:21:41.323Z,4.03
2023-01-03T10:24:23.700Z,4.00
2023-01-03T10:27:04.224Z,4.77
2023-01-03T10:29:31.473Z,3.50
2023-01-03T10:32:14.142Z,9.13
2023-01-03T10:34:41.448Z,6.50
2023-01-03T10:37:19.445Z,6.60
2023-01-03T10:39:46.722Z,10.70
2023-01-03T10:42:19.564Z,7.47
2023-01-03T10:45:01.216Z,5.23
2023-01-03T10:47:28.544Z,7.67
2023-01-03T10:50:04.720Z,7.17
2023-01-03T10:52:40.949Z,5.67
2023-01-03T10:55:17.544Z,4.47
2023-01-03T10:57:57.043Z,5.67
2023-01-03T11:00:36.720Z,6.57
2023-01-03T11:03:14.764Z,5.50
2023-01-03T11:05:46.311Z,6.77
2023-01-03T11:08:23.723Z,5.60
2023-01-03T11:10:55.740Z,4.17
2023-01-03T11:13:24.099Z,3.07
2023-01-03T11:15:57.668Z,3.83
2023-01-03T11:18:30.217Z,3.40
2023-01-03T11:21:24.612Z,3.17
2023-01-03T11:24:43.221Z,2.80
2023-01-03T11:27:47.368Z,3.13
2023-01-03T11:30:41.673Z,2.97
2023-01-03T11:33:46.759Z,3.27
2023-01-03T11:36:35.584Z,3.67
2023-01-03T11:39:51.439Z,3.37
2023-01-03T11:42:54.453Z,3.83
2023-01-03T11:45:33.561Z,2.83
2023-01-03T11:48:40.885Z,5.07
2023-01-03T11:51:18.059Z,3.53
2023-01-03T11:54:07.320Z,2.40
2023-01-03T11:56:49.724Z,3.30
2023-01-03T11:59:53.257Z,2.20
2023-01-03T12:02:43.617Z,3.00
2023-01-03T12:05:39.492Z,3.13
2023-01-03T12:08:12.785Z,2.77
2023-01-03T12:11:02.464Z,3.37
2023-01-03T12:13:47.496Z,2.23
2023-01-03T12:16:32.662Z,2.47
2023-01-03T12:19:32.713Z,2.53
2023-01-03T12:22:25.084Z,2.90
2023-01-03T12:25:20.295Z,3.17
2023-01-03T12:28:10.836Z,3.30
2023-01-03T12:30:59.619Z,2.53
2023-01-03T12:34:02.503Z,1.80
2023-01-03T12:36:42.996Z,2.70
2023-01-03T12:39:36.405Z,2.87
2023-01-03T12:42:23.802Z,2.37
2023-01-03T12:45:34.659Z,4.43
2023-01-03T12:48:38.210Z,2.00
2023-01-03T12:51:06.823Z,1.83
2023-01-03T12:54:06.697Z,2.23
2023-01-03T12:57:06.284Z,2.63
2023-01-03T13:00:17.441Z,1.87
2023-01-03T13:02:50.278Z,2.17
2023-01-03T13:05:38.599Z,2.30
2023-01-03T13:08:22.393Z,1.60
2023-01-03T13:10:53.812Z,1.93
2023-01-03T13:13:22.101Z,2.23
2023-01-03T13:15:49.603Z,2.57
2023-01-03T13:18:22.916Z,3.13
2023-01-03T13:20:54.669Z,2.30
2023-01-03T13:23:30.878Z,2.83
2023-01-03T13:26:19.843Z,3.33
2023-01-03T13:28:47.351Z,2.53
2023-01-03T13:31:14.696Z,2.87
2023-01-03T13:34:10.210Z,1.97
2023-01-03T13:37:05.541Z,2.03
2023-01-03T13:39:51.095Z,3.57
2023-01-03T13:42:31.045Z,3.10
2023-01-03T13:45:30.831Z,3.17
2023-01-03T13:48:08.760Z,2.70
2023-01-03T13:50:37.737Z,4.30
2023-01-03T13:53:26.601Z,5.27
2023-01-03T13:56:20.763Z,4.73
2023-01-03T13:59:02.220Z,4.50
2023-01-03T14:01:44.223Z,3.33
2023-01-03T14:04:30.099Z,3.03
2023-01-03T14:07:22.299Z,4.23
2023-01-03T14:10:28.755Z,5.00
2023-01-03T14:13:20.679Z,2.77
2023-01-03T14:15:50.189Z,2.70
2023-01-03T14:18:29.326Z,3.53
2023-01-03T14:20:58.463Z,3.00
2023-01-03T14:26:18.740Z,4.50
2023-01-03T14:28:51.955Z,3.57
2023-01-03T14:31:23.699Z,2.70
2023-01-03T14:33:59.012Z,2.57
2023-01-03T14:36:28.001Z,3.70
2023-01-03T14:39:01.950Z,3.00
2023-01-03T14:41:38.003Z,4.50
2023-01-03T14:44:08.903Z,3.53
2023-01-03T14:46:38.443Z,23.20
2023-01-03T14:49:19.572Z,9.13
2023-01-03T14:51:47.510Z,4.87
2023-01-03T14:54:20.563Z,6.27
2023-01-03T14:56:49.215Z,8.87
2023-01-03T14:59:19.785Z,8.33
2023-01-03T15:01:48.118Z,8.93
2023-01-03T15:04:17.394Z,11.37
2023-01-03T15:07:13.041Z,9.57
2023-01-03T15:09:40.956Z,8.47
2023-01-03T15:12:08.356Z,9.03
2023-01-03T15:14:39.402Z,11.70
2023-01-03T15:17:09.842Z,8.43
2023-01-03T15:19:40.463Z,8.30
2023-01-03T15:22:22.325Z,10.57
2023-01-03T15:25:19.413Z,11.70
2023-01-03T15:27:51.074Z,9.03
2023-01-03T15:30:24.759Z,9.37
2023-01-03T15:33:18.695Z,7.47
2023-01-03T15:35:49.635Z,7.80
2023-01-03T15:38:37.311Z,9.97
2023-01-03T15:41:46.739Z,8.27
2023-01-03T15:44:19.328Z,7.00
2023-01-03T15:46:48.889Z,7.20
2023-01-03T15:49:22.561Z,8.67
2023-01-03T15:51:50.199Z,8.23
2023-01-03T15:54:19.536Z,7.10
2023-01-03T15:57:04.609Z,8.60
2023-01-03T15:59:41.265Z,7.87
2023-01-03T16:02:17.351Z,7.53
2023-01-03T16:04:48.970Z,7.97
2023-01-03T16:07:16.689Z,7.33
2023-01-03T16:09:44.394Z,5.63
2023-01-03T16:12:34.330Z,6.97
2023-01-03T16:15:04.386Z,6.70
2023-01-03T16:17:32.529Z,5.47
2023-01-03T16:20:01.220Z,6.00
2023-01-03T16:22:40.036Z,8.77
2023-01-03T16:25:16.045Z,6.40
2023-01-03T16:27:43.573Z,7.97
2023-01-03T16:30:13.502Z,6.80
2023-01-03T16:32:41.001Z,7.00
2023-01-03T16:35:19.387Z,6.07
2023-01-03T16:37:46.898Z,8.13
2023-01-03T16:40:18.934Z,10.00
2023-01-03T16:42:46.534Z,9.07
2023-01-03T16:45:14.057Z,8.83
2023-01-03T16:47:44.005Z,8.93
2023-01-03T16:50:20.794Z,8.33
2023-01-03T16:52:53.473Z,10.13
2023-01-03T16:55:35.085Z,7.63
2023-01-03T16:58:02.750Z,8.93
2023-01-03T17:00:33.676Z,8.63
2023-01-03T17:03:01.710Z,8.37
2023-01-03T17:05:35.414Z,7.43
2023-01-03T17:08:16.371Z,6.37
2023-01-03T17:10:47.080Z,6.80
2023-01-03T17:13:42.615Z,6.83
2023-01-03T17:16:19.524Z,8.13
2023-01-03T17:18:47.220Z,8.07
2023-01-03T17:21:32.270Z,6.93
2023-01-03T17:24:10.351Z,6.40
2023-01-03T17:26:37.800Z,8.07
2023-01-03T17:29:07.438Z,8.43
2023-01-03T17:31:34.993Z,8.97
2023-01-03T17:34:25.480Z,7.80
2023-01-03T17:36:54.733Z,8.00
2023-01-03T17:39:23.192Z,7.87
2023-01-03T17:42:11.711Z,8.77
2023-01-03T17:44:39.965Z,6.63
2023-01-03T17:47:35.038Z,6.33
2023-01-03T17:50:02.612Z,7.10
2023-01-03T17:52:34.484Z,6.80
2023-01-03T17:55:04.276Z,5.37
2023-01-03T17:57:37.969Z,6.93
2023-01-03T18:00:27.259Z,6.60
2023-01-03T18:02:55.768Z,7.67
2023-01-03T18:05:28.749Z,10.17
2023-01-03T18:08:00.537Z,17.57
2023-01-03T18:10:45.778Z,16.60
2023-01-03T18:13:34.449Z,16.30
2023-01-03T18:16:02.612Z,17.50
2023-01-03T18:18:31.733Z,21.27
2023-01-03T18:20:59.561Z,31.13
2023-01-03T18:23:35.931Z,41.43
2023-01-03T18:26:11.145Z,45.97
2023-01-03T18:28:38.519Z,102.10
2023-01-03T18:31:07.394Z,60.27
2023-01-03T18:33:35.035Z,53.73
2023-01-03T18:36:02.616Z,50.13
2023-01-03T18:38:32.637Z,47.87
2023-01-03T18:41:04.985Z,41.00
2023-01-03T18:43:34.270Z,36.73
2023-01-03T18:46:02.028Z,35.33
2023-01-03T18:48:29.594Z,39.80
2023-01-03T18:50:59.206Z,48.60
2023-01-03T18:53:31.711Z,28.03
2023-01-03T18:56:00.635Z,17.97
2023-01-03T18:58:41.185Z,13.47
2023-01-03T19:01:11.116Z,27.67
2023-01-03T19:03:42.696Z,33.07
2023-01-03T19:06:31.763Z,46.63
2023-01-03T19:09:03.966Z,23.90
2023-01-03T19:11:36.626Z,38.77
2023-01-03T19:14:05.709Z,38.73
2023-01-03T19:16:38.509Z,28.10
2023-01-03T19:19:07.779Z,32.30
2023-01-03T19:21:42.274Z,31.93
2023-01-03T19:24:38.228Z,20.47
2023-01-03T19:27:21.501Z,28.77
2023-01-03T19:29:50.510Z,20.80
2023-01-03T19:32:25.570Z,22.47
2023-01-03T19:34:53.065Z,24.60
2023-01-03T19:37:20.986Z,28.97
2023-01-03T19:39:48.733Z,40.20
2023-01-03T19:42:37.778Z,45.27
2023-01-03T19:45:32.156Z,45.17
2023-01-03T19:48:12.534Z,52.30
2023-01-03T19:50:40.011Z,37.40
2023-01-03T19:53:07.553Z,62.13
2023-01-03T19:55:40.139Z,60.73
2023-01-03T19:58:30.520Z,52.27
2023-01-03T20:00:59.207Z,58.43
2023-01-03T20:03:39.672Z,48.20
2023-01-03T20:06:14.854Z,49.13
2023-01-03T20:08:42.382Z,47.80
2023-01-03T20:11:30.010Z,45.73
2023-01-03T20:13:57.516Z,46.23
2023-01-03T20:16:25.416Z,41.07
2023-01-03T20:18:52.909Z,47.40
2023-01-03T20:21:24.810Z,37.07
2023-01-03T20:23:58.843Z,42.30
2023-01-03T20:26:31.355Z,44.17
2023-01-03T20:29:00.497Z,47.57
2023-01-03T20:31:28.327Z,47.57
2023-01-03T20:33:55.891Z,46.77
2023-01-03T20:36:33.052Z,46.47
2023-01-03T20:39:00.593Z,49.33
2023-01-03T20:41:36.708Z,47.67
2023-01-03T20:44:09.224Z,61.57
2023-01-03T20:46:39.070Z,70.60
2023-01-03T20:49:17.540Z,61.47
2023-01-03T20:51:45.170Z,66.60
2023-01-03T20:54:12.763Z,65.50
2023-01-03T20:56:40.329Z,64.37
2023-01-03T20:59:07.949Z,66.40
2023-01-03T21:01:35.794Z,61.10
2023-01-03T21:04:03.360Z,49.10
2023-01-03T21:06:34.563Z,37.63
2023-01-03T21:09:01.992Z,40.13
2023-01-03T21:11:32.294Z,38.53
2023-01-03T21:14:01.166Z,35.80
2023-01-03T21:16:46.488Z,37.47
2023-01-03T21:19:23.370Z,34.53
2023-01-03T21:21:54.228Z,37.33
2023-01-03T21:24:25.565Z,26.27
2023-01-03T21:26:53.146Z,25.20
2023-01-03T21:29:22.158Z,28.83
2023-01-03T21:31:49.734Z,26.47
2023-01-03T21:34:20.651Z,23.10
2023-01-03T21:36:49.963Z,30.80
2023-01-03T21:39:17.525Z,24.43
2023-01-03T21:42:03.678Z,27.83
2023-01-03T21:44:31.115Z,29.20
2023-01-03T21:46:58.618Z,26.53
2023-01-03T21:49:26.068Z,25.37
2023-01-03T21:51:53.540Z,26.63
2023-01-03T21:54:21.553Z,29.03
2023-01-03T21:56:49.367Z,26.40
2023-01-03T21:59:17.816Z,27.30
2023-01-03T22:02:07.328Z,31.23
2023-01-03T22:04:35.560Z,29.33
2023-01-03T22:07:03.107Z,28.17
2023-01-03T22:09:50.546Z,28.33
2023-01-03T22:12:19.988Z,24.30
2023-01-03T22:14:47.882Z,28.57
2023-01-03T22:17:16.377Z,25.97
2023-01-03T22:19:43.923Z,25.67
2023-01-03T22:22:11.378Z,28.30
2023-01-03T22:24:38.785Z,27.47
2023-01-03T22:27:06.399Z,31.07
2023-01-03T22:29:33.842Z,29.93
2023-01-03T22:32:01.290Z,29.03
2023-01-03T22:34:28.813Z,43.90
2023-01-03T22:36:56.176Z,50.03
2023-01-03T22:39:23.583Z,44.43
2023-01-03T22:41:51.021Z,39.47
2023-01-03T22:44:18.563Z,36.23
2023-01-03T22:46:45.929Z,36.17
2023-01-03T22:49:13.376Z,31.17
2023-01-03T22:51:40.886Z,34.10
2023-01-03T22:54:08.309Z,95.53
2023-01-03T22:56:35.770Z,41.93
2023-01-03T22:59:03.356Z,32.00
2023-01-03T23:01:31.642Z,47.40
2023-01-03T23:04:01.341Z,87.43
2023-01-03T23:06:31.665Z,72.17
2023-01-03T23:08:59.684Z,49.73
2023-01-03T23:11:49.455Z,94.17
2023-01-03T23:14:20.287Z,364.03
2023-01-03T23:16:51.436Z,154.40
2023-01-03T23:19:24.051Z,59.77
2023-01-03T23:21:53.324Z,55.47
2023-01-03T23:24:24.599Z,48.13
2023-01-03T23:26:53.183Z,42.90
2023-01-03T23:29:21.394Z,49.93
2023-01-03T23:31:48.905Z,93.50
2023-01-03T23:34:16.315Z,200.67
2023-01-03T23:36:43.878Z,98.70
2023-01-03T23:39:17.695Z,66.83
2023-01-03T23:41:46.540Z,51.70
2023-01-03T23:44:14.119Z,46.80
2023-01-03T23:46:41.633Z,37.13
2023-01-03T23:49:12.997Z,29.57
2023-01-03T23:51:40.537Z,41.67
2023-01-03T23:54:08.108Z,48.43
2023-01-03T23:56:35.606Z,55.10
2023-01-03T23:59:04.121Z,63.27
